Time;durP1;ratioP1;P1;durP2;ratioP2;P2;SDS_P1;SDS_P2;PMS_P1;PMS_P2;Temp;Humidity;BMP_temperature;BMP_pressure;BME280_temperature;BME280_humidity;BME280_pressure;Samples;Min_cycle;Max_cycle;Signal;HPM_P1;HPM_P2
2023/04/17 00:01:16;;;;;;;;;;;;;;;8.01;100.00;102618.06;5075704;28;20630;-45
2023/04/17 00:03:41;;;;;;;;;;;;;;;8.02;100.00;102622.38;5082742;28;19939;-46
2023/04/17 00:06:06;;;;;;;;;;;;;;;8.03;100.00;102622.47;5077867;28;19952;-45
2023/04/17 00:08:32;;;;;;;;;;;;;;;8.05;100.00;102623.47;5076845;28;19928;-45
2023/04/17 00:10:58;;;;;;;;;;;;;;;8.02;100.00;102617.25;5076998;28;19916;-46
2023/04/17 00:13:23;;;;;;;;;;;;;;;7.99;100.00;102619.59;5079581;28;19921;-47
2023/04/17 00:15:48;;;;;;;;;;;;;;;7.98;100.00;102610.16;5082593;28;19965;-47
2023/04/17 00:18:13;;;;;;;;;;;;;;;7.97;100.00;102611.81;5077061;28;20781;-46
2023/04/17 00:20:39;;;;;;;;;;;;;;;7.94;100.00;102609.03;5075935;28;19950;-45
2023/04/17 00:23:04;;;;;;;;;;;;;;;7.91;100.00;102610.53;5072783;28;19920;-46
2023/04/17 00:25:30;;;;;;;;;;;;;;;7.91;100.00;102606.28;5083763;28;19951;-46
2023/04/17 00:27:55;;;;;;;;;;;;;;;7.89;100.00;102595.06;5072609;28;20378;-50
2023/04/17 00:30:20;;;;;;;;;;;;;;;7.88;100.00;102598.38;5071847;28;19928;-48
2023/04/17 00:32:45;;;;;;;;;;;;;;;7.88;100.00;102600.94;5074646;28;19924;-51
2023/04/17 00:35:11;;;;;;;;;;;;;;;7.88;100.00;102598.38;5082025;28;20020;-47
2023/04/17 00:37:36;;;;;;;;;;;;;;;7.87;100.00;102601.75;5075440;28;20282;-48
2023/04/17 00:40:02;;;;;;;;;;;;;;;7.85;100.00;102593.06;5085419;28;20704;-48
2023/04/17 00:42:27;;;;;;;;;;;;;;;7.86;100.00;102596.53;5083063;28;19942;-50
2023/04/17 00:44:52;;;;;;;;;;;;;;;7.84;100.00;102599.00;5083529;28;20544;-49
2023/04/17 00:47:17;;;;;;;;;;;;;;;7.87;100.00;102594.06;5074689;28;20644;-49
2023/04/17 00:49:43;;;;;;;;;;;;;;;7.83;100.00;102593.78;5085207;28;20310;-48
2023/04/17 00:52:09;;;;;;;;;;;;;;;7.84;100.00;102593.00;5076516;28;19921;-49
2023/04/17 00:54:34;;;;;;;;;;;;;;;7.83;100.00;102592.09;5078231;28;19942;-50
2023/04/17 00:57:00;;;;;;;;;;;;;;;7.83;100.00;102588.66;5075871;28;19920;-48
2023/04/17 00:59:27;;;;;;;;;;;;;;;7.83;100.00;102591.22;5083782;28;19920;-49
2023/04/17 01:01:52;;;;;;;;;;;;;;;7.80;100.00;102586.75;5081345;28;19926;-49
2023/04/17 01:04:17;;;;;;;;;;;;;;;7.80;100.00;102589.31;5081994;28;20003;-46
2023/04/17 01:06:42;;;;;;;;;;;;;;;7.81;100.00;102585.97;5083444;28;19959;-48
2023/04/17 01:09:08;;;;;;;;;;;;;;;7.80;100.00;102587.66;5080575;28;19974;-47
2023/04/17 01:11:33;;;;;;;;;;;;;;;7.81;100.00;102585.97;5084795;28;19939;-46
2023/04/17 01:13:58;;;;;;;;;;;;;;;7.80;100.00;102579.06;5084046;28;19920;-46
2023/04/17 01:16:23;;;;;;;;;;;;;;;7.81;100.00;102591.09;5079742;28;19953;-47
2023/04/17 01:18:49;;;;;;;;;;;;;;;7.82;100.00;102590.28;5077244;28;19920;-47
2023/04/17 01:21:14;;;;;;;;;;;;;;;7.78;100.00;102591.78;5081412;28;19959;-47
2023/04/17 01:23:41;;;;;;;;;;;;;;;7.80;100.00;102595.31;5081115;28;19928;-45
2023/04/17 01:26:07;;;;;;;;;;;;;;;7.79;100.00;102591.00;5082682;28;19924;-48
2023/04/17 01:28:32;;;;;;;;;;;;;;;7.78;100.00;102596.91;5083112;28;19927;-46
2023/04/17 01:30:57;;;;;;;;;;;;;;;7.80;100.00;102602.13;5076975;28;20345;-46
2023/04/17 01:33:23;;;;;;;;;;;;;;;7.78;100.00;102596.03;5080997;28;20333;-46
2023/04/17 01:35:48;;;;;;;;;;;;;;;7.78;100.00;102601.16;5084935;28;20014;-55
2023/04/17 01:38:13;;;;;;;;;;;;;;;7.78;100.00;102596.91;5075579;28;19928;-56
2023/04/17 01:40:38;;;;;;;;;;;;;;;7.80;100.00;102600.44;5082408;28;19928;-56
2023/04/17 01:43:04;;;;;;;;;;;;;;;7.82;100.00;102603.09;5080388;28;19927;-56
2023/04/17 01:45:29;;;;;;;;;;;;;;;7.77;100.00;102605.38;5077458;28;19968;-56
2023/04/17 01:47:54;;;;;;;;;;;;;;;7.75;100.00;102603.47;5079514;28;19920;-56
2023/04/17 01:50:20;;;;;;;;;;;;;;;7.72;100.00;102605.84;5079774;28;19982;-56
2023/04/17 01:52:45;;;;;;;;;;;;;;;7.70;100.00;102602.28;5081270;28;19928;-54
2023/04/17 01:55:10;;;;;;;;;;;;;;;7.70;100.00;102604.84;5082096;28;19920;-56
2023/04/17 01:57:36;;;;;;;;;;;;;;;7.68;100.00;102606.44;5083310;28;19946;-56
2023/04/17 02:00:01;;;;;;;;;;;;;;;7.66;100.00;102600.31;5080745;28;20393;-56
2023/04/17 02:02:26;;;;;;;;;;;;;;;7.64;100.00;102605.31;5076777;28;19928;-55
2023/04/17 02:04:52;;;;;;;;;;;;;;;7.66;100.00;102605.44;5078175;28;19924;-56
2023/04/17 02:07:17;;;;;;;;;;;;;;;7.63;100.00;102605.22;5080826;28;20303;-56
2023/04/17 02:09:42;;;;;;;;;;;;;;;7.62;100.00;102611.13;5080663;28;19926;-55
2023/04/17 02:12:07;;;;;;;;;;;;;;;7.64;100.00;102605.31;5079632;28;20078;-55
2023/04/17 02:14:33;;;;;;;;;;;;;;;7.60;100.00;102610.16;5080260;28;20016;-55
2023/04/17 02:16:58;;;;;;;;;;;;;;;7.60;100.00;102610.16;5075384;28;19921;-56
2023/04/17 02:19:23;;;;;;;;;;;;;;;7.59;100.00;102609.25;5084643;28;19928;-56
2023/04/17 02:21:48;;;;;;;;;;;;;;;7.60;100.00;102615.28;5083047;28;19928;-56
2023/04/17 02:24:14;;;;;;;;;;;;;;;7.57;100.00;102603.13;5074509;28;19927;-56
2023/04/17 02:26:39;;;;;;;;;;;;;;;7.59;100.00;102609.25;5081934;28;20466;-55
2023/04/17 02:29:05;;;;;;;;;;;;;;;7.64;100.00;102612.13;5078052;28;19920;-55
2023/04/17 02:31:30;;;;;;;;;;;;;;;7.59;100.00;102604.16;5082717;28;20027;-56
2023/04/17 02:33:55;;;;;;;;;;;;;;;7.59;100.00;102608.38;5077145;28;19935;-56
2023/04/17 02:36:21;;;;;;;;;;;;;;;7.58;100.00;102601.47;5079915;28;20487;-55
2023/04/17 02:38:46;;;;;;;;;;;;;;;7.56;100.00;102605.59;5081257;28;19924;-56
2023/04/17 02:41:11;;;;;;;;;;;;;;;7.57;100.00;102608.25;5083346;28;19932;-55
2023/04/17 02:43:36;;;;;;;;;;;;;;;7.58;100.00;102604.00;5075638;28;19920;-53
2023/04/17 02:46:02;;;;;;;;;;;;;;;7.56;100.00;102608.16;5077734;28;19928;-55
2023/04/17 02:48:27;;;;;;;;;;;;;;;7.57;100.00;102604.81;5081631;28;19923;-56
2023/04/17 02:50:52;;;;;;;;;;;;;;;7.55;100.00;102601.25;5081222;28;19923;-55
2023/04/17 02:53:17;;;;;;;;;;;;;;;7.52;100.00;102602.84;5078730;28;20049;-57
2023/04/17 02:55:43;;;;;;;;;;;;;;;7.52;100.00;102604.47;5084342;28;19916;-55
2023/04/17 02:58:08;;;;;;;;;;;;;;;7.53;100.00;102608.84;5077678;28;19920;-55
2023/04/17 03:00:33;;;;;;;;;;;;;;;7.52;100.00;102602.84;5080035;28;19948;-56
2023/04/17 03:02:59;;;;;;;;;;;;;;;7.55;100.00;102607.28;5078670;28;20010;-56
2023/04/17 03:05:24;;;;;;;;;;;;;;;7.52;100.00;102610.53;5076249;28;19928;-55
2023/04/17 03:07:50;;;;;;;;;;;;;;;7.57;100.00;102615.94;5082203;28;20298;-55
2023/04/17 03:10:16;;;;;;;;;;;;;;;7.56;100.00;102618.41;5084724;28;19924;-55
2023/04/17 03:12:41;;;;;;;;;;;;;;;7.49;100.00;102612.84;5080678;28;19916;-56
2023/04/17 03:15:07;;;;;;;;;;;;;;;7.48;100.00;102615.31;5075545;28;19972;-56
2023/04/17 03:17:32;;;;;;;;;;;;;;;7.45;100.00;102623.66;5090291;28;20362;-56
2023/04/17 03:19:58;;;;;;;;;;;;;;;7.38;100.00;102616.34;5080885;28;19921;-56
2023/04/17 03:22:23;;;;;;;;;;;;;;;7.36;100.00;102622.16;5078369;28;19925;-55
2023/04/17 03:24:48;;;;;;;;;;;;;;;7.33;100.00;102620.25;5075476;28;19952;-55
2023/04/17 03:27:13;;;;;;;;;;;;;;;7.35;100.00;102610.16;5076005;28;19966;-45
2023/04/17 03:29:39;;;;;;;;;;;;;;;7.35;100.00;102618.72;5082606;28;20385;-47
2023/04/17 03:32:04;;;;;;;;;;;;;;;7.32;100.00;102618.47;5080813;28;19920;-48
2023/04/17 03:34:30;;;;;;;;;;;;;;;7.31;100.00;102614.16;5078903;28;20065;-45
2023/04/17 03:36:55;;;;;;;;;;;;;;;7.31;100.00;102615.81;5084392;28;19920;-49
2023/04/17 03:39:20;;;;;;;;;;;;;;;7.30;100.00;102617.50;5082097;28;19924;-48
2023/04/17 03:41:46;;;;;;;;;;;;;;;7.31;100.00;102623.50;5085428;28;20454;-48
2023/04/17 03:44:11;;;;;;;;;;;;;;;7.32;100.00;102618.47;5080932;28;19935;-47
2023/04/17 03:46:37;;;;;;;;;;;;;;;7.30;100.00;102612.38;5072107;28;20018;-46
2023/04/17 03:49:02;;;;;;;;;;;;;;;7.29;100.00;102617.41;5079067;28;19994;-46
2023/04/17 03:51:27;;;;;;;;;;;;;;;7.30;100.00;102617.50;5077011;28;19955;-47
2023/04/17 03:53:53;;;;;;;;;;;;;;;7.31;100.00;102620.94;5080481;28;19928;-47
2023/04/17 03:56:18;;;;;;;;;;;;;;;7.30;100.00;102616.63;5079564;28;19920;-46
2023/04/17 03:58:43;;;;;;;;;;;;;;;7.25;100.00;102612.06;5080673;28;20004;-47
2023/04/17 04:01:13;;;;;;;;;;;;;;;7.23;100.00;102616.19;5079321;28;19928;-46
2023/04/17 04:03:39;;;;;;;;;;;;;;;7.20;100.00;102615.06;5087600;28;19929;-48
2023/04/17 04:06:06;;;;;;;;;;;;;;;7.20;100.00;102622.75;5082080;28;20007;-46
2023/04/17 04:08:31;;;;;;;;;;;;;;;7.20;100.00;102618.53;5079006;28;20378;-47
2023/04/17 04:10:56;;;;;;;;;;;;;;;7.17;100.00;102620.00;5078549;28;19963;-48
2023/04/17 04:13:21;;;;;;;;;;;;;;;7.18;100.00;102617.53;5087807;28;19926;-47
2023/04/17 04:15:47;;;;;;;;;;;;;;;7.17;100.00;102623.44;5083305;28;19920;-48
2023/04/17 04:18:12;;;;;;;;;;;;;;;7.17;100.00;102612.31;5083731;28;20019;-47
2023/04/17 04:20:37;;;;;;;;;;;;;;;7.19;100.00;102621.88;5085578;28;19935;-46
2023/04/17 04:23:03;;;;;;;;;;;;;;;7.16;100.00;102623.31;5086617;28;20290;-46
2023/04/17 04:25:29;;;;;;;;;;;;;;;7.16;100.00;102623.31;5081851;28;19921;-46
2023/04/17 04:27:55;;;;;;;;;;;;;;;7.20;100.00;102626.19;5086377;28;19920;-46
2023/04/17 04:30:20;;;;;;;;;;;;;;;7.16;100.00;102623.31;5080723;28;20359;-45
2023/04/17 04:32:46;;;;;;;;;;;;;;;7.14;100.00;102625.75;5086821;28;19920;-47
2023/04/17 04:35:11;;;;;;;;;;;;;;;7.13;100.00;102631.66;5085274;28;20006;-47
2023/04/17 04:37:37;;;;;;;;;;;;;;;7.13;100.00;102630.78;5086304;28;20014;-47
2023/04/17 04:40:09;;;;;;;;;;;;;;;7.11;100.00;102629.81;5080632;28;19925;-47
2023/04/17 04:42:34;;;;;;;;;;;;;;;7.11;100.00;102630.69;5082684;28;19932;-46
2023/04/17 04:44:59;;;;;;;;;;;;;;;7.10;100.00;102630.56;5083135;28;19923;-46
2023/04/17 04:47:24;;;;;;;;;;;;;;;7.08;100.00;102639.81;5080906;28;19920;-46
2023/04/17 04:49:50;;;;;;;;;;;;;;;7.08;100.00;102638.13;5080403;28;19925;-48
2023/04/17 04:52:15;;;;;;;;;;;;;;;7.06;100.00;102633.69;5083811;28;19973;-46
2023/04/17 04:54:40;;;;;;;;;;;;;;;7.09;100.00;102639.00;5083797;28;19924;-46
2023/04/17 04:57:05;;;;;;;;;;;;;;;7.11;100.00;102637.47;5080545;28;19926;-46
2023/04/17 04:59:31;;;;;;;;;;;;;;;7.10;100.00;102634.03;5079659;28;19928;-46
2023/04/17 05:01:56;;;;;;;;;;;;;;;7.09;100.00;102641.56;5080277;28;19920;-46
2023/04/17 05:04:21;;;;;;;;;;;;;;;7.09;100.00;102633.91;5089688;28;19973;-46
2023/04/17 05:06:47;;;;;;;;;;;;;;;7.07;100.00;102640.59;5083074;28;19927;-46
2023/04/17 05:09:12;;;;;;;;;;;;;;;7.05;100.00;102634.50;5082882;28;19938;-45
2023/04/17 05:11:37;;;;;;;;;;;;;;;7.05;100.00;102637.03;5084813;28;19920;-46
2023/04/17 05:14:02;;;;;;;;;;;;;;;7.07;100.00;102646.59;5087611;28;19924;-45
2023/04/17 05:16:28;;;;;;;;;;;;;;;7.14;100.00;102656.47;5080171;28;19931;-46
2023/04/17 05:18:53;;;;;;;;;;;;;;;7.11;100.00;102655.38;5080323;28;20934;-45
2023/04/17 05:21:18;;;;;;;;;;;;;;;7.08;100.00;102650.91;5084137;28;19943;-46
2023/04/17 05:23:44;;;;;;;;;;;;;;;7.12;100.00;102647.81;5078775;28;19920;-46
2023/04/17 05:26:09;;;;;;;;;;;;;;;7.12;100.00;102657.16;5083962;28;19975;-46
2023/04/17 05:28:34;;;;;;;;;;;;;;;7.12;100.00;102655.47;5080531;28;19920;-46
2023/04/17 05:31:00;;;;;;;;;;;;;;;7.14;100.00;102656.47;5084307;28;20014;-44
2023/04/17 05:33:25;;;;;;;;;;;;;;;7.14;100.00;102659.03;5080356;28;20398;-46
2023/04/17 05:35:50;;;;;;;;;;;;;;;7.16;100.00;102665.16;5081987;28;20010;-47
2023/04/17 05:38:16;;;;;;;;;;;;;;;7.17;100.00;102663.50;5081350;28;19917;-53
2023/04/17 05:40:41;;;;;;;;;;;;;;;7.18;100.00;102660.16;5078418;28;19928;-56
2023/04/17 05:43:08;;;;;;;;;;;;;;;7.21;100.00;102650.09;5082387;28;20019;-56
2023/04/17 05:45:33;;;;;;;;;;;;;;;7.21;100.00;102662.91;5082773;28;19924;-56
2023/04/17 05:47:58;;;;;;;;;;;;;;;7.26;100.00;102666.69;5076565;28;19942;-58
2023/04/17 05:50:23;;;;;;;;;;;;;;;7.25;100.00;102664.91;5077686;28;19920;-55
2023/04/17 05:52:49;;;;;;;;;;;;;;;7.26;100.00;102666.69;5087361;28;19920;-55
2023/04/17 05:55:14;;;;;;;;;;;;;;;7.28;100.00;102662.56;5086119;28;19924;-56
2023/04/17 05:57:40;;;;;;;;;;;;;;;7.28;100.00;102666.78;5077733;28;20299;-55
2023/04/17 06:00:11;;;;;;;;;;;;;;;7.33;100.00;102679.13;5080361;28;19920;-57
2023/04/17 06:02:37;;;;;;;;;;;;;;;7.35;100.00;102677.56;5081117;28;19939;-56
2023/04/17 06:05:06;;;;;;;;;;;;;;;7.37;100.00;102675.13;5085734;28;19924;-56
2023/04/17 06:07:32;;;;;;;;;;;;;;;7.40;100.00;102672.75;5077159;28;19926;-55
2023/04/17 06:09:57;;;;;;;;;;;;;;;7.41;100.00;102678.00;5086893;28;19916;-56
2023/04/17 06:12:22;;;;;;;;;;;;;;;7.45;100.00;102674.84;5080613;28;19928;-57
2023/04/17 06:14:47;;;;;;;;;;;;;;;7.44;100.00;102679.88;5089156;28;19956;-57
2023/04/17 06:17:13;;;;;;;;;;;;;;;7.43;100.00;102683.22;5087742;28;19928;-52
2023/04/17 06:19:38;;;;;;;;;;;;;;;7.42;100.00;102677.22;5085835;28;19920;-49
2023/04/17 06:22:04;;;;;;;;;;;;;;;7.47;100.00;102693.78;5080331;28;19935;-50
2023/04/17 06:24:29;;;;;;;;;;;;;;;7.50;100.00;102691.41;5084593;28;20003;-50
2023/04/17 06:26:55;;;;;;;;;;;;;;;7.51;100.00;102690.63;5083228;28;20018;-53
2023/04/17 06:29:20;;;;;;;;;;;;;;;7.51;100.00;102698.31;5082987;28;19920;-50
2023/04/17 06:31:46;;;;;;;;;;;;;;;7.46;100.00;102694.56;5076516;28;19920;-52
2023/04/17 06:34:11;;;;;;;;;;;;;;;7.49;100.00;102693.88;5076528;28;19966;-50
2023/04/17 06:36:37;;;;;;;;;;;;;;;7.48;100.00;102698.13;5079474;28;20007;-52
2023/04/17 06:39:02;;;;;;;;;;;;;;;7.50;100.00;102696.53;5077456;28;19927;-50
2023/04/17 06:41:28;;;;;;;;;;;;;;;7.53;100.00;102701.88;5081960;28;19928;-51
2023/04/17 06:43:53;;;;;;;;;;;;;;;7.56;100.00;102703.75;5081616;28;20302;-53
2023/04/17 06:46:20;;;;;;;;;;;;;;;7.60;100.00;102705.75;5088935;28;20002;-51
2023/04/17 06:48:45;;;;;;;;;;;;;;;7.58;100.00;102708.97;5082446;28;19931;-49
2023/04/17 06:51:10;;;;;;;;;;;;;;;7.55;100.00;102714.78;5088443;28;19920;-51
2023/04/17 06:53:36;;;;;;;;;;;;;;;7.55;100.00;102712.22;5078497;28;19917;-51
2023/04/17 06:56:01;;;;;;;;;;;;;;;7.60;100.00;102710.00;5081842;28;19974;-55
2023/04/17 06:58:26;;;;;;;;;;;;;;;7.66;100.00;102715.53;5080103;28;20645;-54
2023/04/17 07:00:51;;;;;;;;;;;;;;;7.70;100.00;102714.94;5078448;28;19932;-52
2023/04/17 07:03:16;;;;;;;;;;;;;;;7.69;100.00;102713.16;5076555;28;19962;-52
2023/04/17 07:05:45;;;;;;;;;;;;;;;7.74;100.00;102716.94;5076310;28;19927;-52
2023/04/17 07:08:10;;;;;;;;;;;;;;;7.73;100.00;102717.75;5084789;28;19975;-52
2023/04/17 07:10:35;;;;;;;;;;;;;;;7.72;100.00;102718.53;5079498;28;20640;-51
2023/04/17 07:13:02;;;;;;;;;;;;;;;7.71;100.00;102725.31;5082511;28;19920;-49
2023/04/17 07:15:29;;;;;;;;;;;;;;;7.70;100.00;102731.19;5082004;28;19921;-50
2023/04/17 07:17:54;;;;;;;;;;;;;;;7.62;100.00;102729.78;5079000;28;19930;-53
2023/04/17 07:20:20;;;;;;;;;;;;;;;7.58;100.00;102739.69;5084731;28;19919;-49
2023/04/17 07:22:46;;;;;;;;;;;;;;;7.64;100.00;102742.69;5084233;28;19921;-51
2023/04/17 07:25:11;;;;;;;;;;;;;;;7.61;100.00;102740.81;5079656;28;19973;-50
2023/04/17 07:27:38;;;;;;;;;;;;;;;7.67;100.00;102746.38;5087497;28;20109;-49
2023/04/17 07:30:04;;;;;;;;;;;;;;;7.78;100.00;102745.44;5082531;28;19924;-52
2023/04/17 07:32:29;;;;;;;;;;;;;;;7.80;100.00;102742.97;5081277;28;20022;-50
2023/04/17 07:34:55;;;;;;;;;;;;;;;7.77;100.00;102742.78;5071944;28;20011;-49
2023/04/17 07:37:20;;;;;;;;;;;;;;;7.80;100.00;102754.09;5085932;28;19920;-51
2023/04/17 07:39:48;;;;;;;;;;;;;;;7.81;100.00;102747.31;5080370;28;19928;-49
2023/04/17 07:42:13;;;;;;;;;;;;;;;7.77;100.00;102753.91;5081528;28;20830;-49
2023/04/17 07:44:38;;;;;;;;;;;;;;;7.74;100.00;102750.25;5079042;28;20035;-52
2023/04/17 07:47:03;;;;;;;;;;;;;;;7.77;100.00;102750.47;5081289;28;19922;-49
2023/04/17 07:49:29;;;;;;;;;;;;;;;7.82;100.00;102750.75;5081882;28;19928;-49
2023/04/17 07:51:54;;;;;;;;;;;;;;;7.91;100.00;102762.53;5082000;28;19928;-48
2023/04/17 07:54:20;;;;;;;;;;;;;;;7.89;100.00;102759.00;5077834;28;19995;-53
2023/04/17 07:56:45;;;;;;;;;;;;;;;7.95;100.00;102753.41;5080818;28;20389;-53
2023/04/17 07:59:11;;;;;;;;;;;;;;;7.89;100.00;102763.22;5085521;28;19963;-51
2023/04/17 08:01:36;;;;;;;;;;;;;;;7.92;100.00;102763.44;5078789;28;19927;-52
2023/04/17 08:04:01;;;;;;;;;;;;;;;7.93;100.00;102760.97;5078589;28;20364;-51
2023/04/17 08:06:27;;;;;;;;;;;;;;;8.00;100.00;102760.59;5078523;28;20287;-50
2023/04/17 08:08:52;;;;;;;;;;;;;;;8.10;100.00;102757.00;5079158;28;19978;-50
2023/04/17 08:11:17;;;;;;;;;;;;;;;8.14;100.00;102760.69;5076103;28;19924;-51
2023/04/17 08:13:42;;;;;;;;;;;;;;;8.17;100.00;102761.75;5082995;28;19924;-52
2023/04/17 08:16:08;;;;;;;;;;;;;;;8.23;100.00;102756.16;5077878;28;19920;-52
2023/04/17 08:18:36;;;;;;;;;;;;;;;8.30;100.00;102758.34;5081351;28;19978;-54
2023/04/17 08:21:01;;;;;;;;;;;;;;;8.29;100.00;102756.56;5074632;28;19995;-49
2023/04/17 08:23:26;;;;;;;;;;;;;;;8.31;100.00;102761.03;5073496;28;19982;-50
2023/04/17 08:25:52;;;;;;;;;;;;;;;8.37;100.00;102760.56;5076063;28;19920;-53
2023/04/17 08:28:17;;;;;;;;;;;;;;;8.37;100.00;102760.56;5073912;28;19966;-54
2023/04/17 08:30:42;;;;;;;;;;;;;;;8.43;100.00;102763.53;5078069;28;19974;-54
2023/04/17 08:33:07;;;;;;;;;;;;;;;8.56;100.00;102760.16;5076190;28;20907;-54
2023/04/17 08:35:33;;;;;;;;;;;;;;;8.63;100.00;102754.63;5080523;28;19927;-54
2023/04/17 08:37:58;;;;;;;;;;;;;;;8.78;100.00;102763.31;5084566;28;19963;-54
2023/04/17 08:40:25;;;;;;;;;;;;;;;8.88;100.00;102758.78;5080402;28;19932;-55
2023/04/17 08:42:51;;;;;;;;;;;;;;;8.95;100.00;102758.41;5075688;28;20322;-55
2023/04/17 08:45:17;;;;;;;;;;;;;;;9.09;100.00;102762.72;5080224;28;19939;-54
2023/04/17 08:47:42;;;;;;;;;;;;;;;9.14;100.00;102762.25;5077930;28;19920;-55
2023/04/17 08:50:08;;;;;;;;;;;;;;;9.28;100.00;102763.16;5080788;28;19920;-54
2023/04/17 08:52:37;;;;;;;;;;;;;;;9.42;100.00;102765.69;5080734;28;19976;-55
2023/04/17 08:55:02;;;;;;;;;;;;;;;9.51;100.00;102764.56;5087929;28;20440;-56
2023/04/17 08:57:27;;;;;;;;;;;;;;;9.60;100.00;102772.88;5080763;28;19999;-55
2023/04/17 08:59:53;;;;;;;;;;;;;;;9.52;100.00;102765.44;5092557;28;20014;-56
2023/04/17 09:02:18;;;;;;;;;;;;;;;9.60;100.00;102762.59;5081638;28;19920;-55
2023/04/17 09:04:44;;;;;;;;;;;;;;;9.66;100.00;102772.34;5085238;28;20140;-55
2023/04/17 09:07:14;;;;;;;;;;;;;;;9.54;100.00;102774.16;5084857;28;19935;-54
2023/04/17 09:09:55;;;;;;;;;;;;;;;9.52;100.00;102766.34;5079352;28;20013;-55
2023/04/17 09:12:24;;;;;;;;;;;;;;;9.50;100.00;102769.63;5085742;28;19919;-54
2023/04/17 09:14:49;;;;;;;;;;;;;;;9.59;100.00;102768.53;5086397;28;19919;-54
2023/04/17 09:17:16;;;;;;;;;;;;;;;9.71;100.00;102770.06;5079214;28;19939;-53
2023/04/17 09:20:00;;;;;;;;;;;;;;;9.78;100.00;102774.81;5081043;28;19919;-54
2023/04/17 09:22:25;;;;;;;;;;;;;;;9.88;100.00;102771.97;5080822;28;19928;-54
2023/04/17 09:24:51;;;;;;;;;;;;;;;9.98;100.00;102768.31;5084039;28;19928;-53
2023/04/17 09:27:23;;;;;;;;;;;;;;;10.15;99.56;102765.06;5081065;28;19924;-56
2023/04/17 09:30:02;;;;;;;;;;;;;;;10.30;98.89;102757.41;5080288;28;19928;-56
2023/04/17 09:32:28;;;;;;;;;;;;;;;10.52;99.83;102763.03;5085471;28;19924;-55
2023/04/17 09:34:55;;;;;;;;;;;;;;;10.70;96.16;102771.81;5091984;28;19920;-56
2023/04/17 09:37:21;;;;;;;;;;;;;;;10.86;97.38;102775.25;5098219;28;19919;-54
2023/04/17 09:39:56;;;;;;;;;;;;;;;10.83;95.89;102765.69;5105696;28;19916;-55
2023/04/17 09:42:22;;;;;;;;;;;;;;;10.83;95.61;102767.38;5107366;28;19927;-55
2023/04/17 09:44:47;;;;;;;;;;;;;;;10.89;96.34;102760.88;5088481;28;19921;-54
2023/04/17 09:47:14;;;;;;;;;;;;;;;11.08;94.71;102760.22;5088296;28;20272;-54
2023/04/17 09:49:48;;;;;;;;;;;;;;;11.09;94.13;102759.41;5085674;28;19919;-54
2023/04/17 09:52:13;;;;;;;;;;;;;;;11.14;91.69;102760.56;5098695;28;19920;-56
2023/04/17 09:54:39;;;;;;;;;;;;;;;11.16;92.90;102759.00;5096106;28;19913;-56
2023/04/17 09:57:08;;;;;;;;;;;;;;;11.35;89.22;102760.00;5100531;28;19915;-55
2023/04/17 09:59:33;;;;;;;;;;;;;;;11.43;88.68;102763.88;5095230;28;19965;-55
2023/04/17 10:02:00;;;;;;;;;;;;;;;11.38;90.39;102758.47;5101277;28;19928;-56
2023/04/17 10:04:25;;;;;;;;;;;;;;;11.47;87.79;102756.41;5104694;28;19931;-55
2023/04/17 10:06:51;;;;;;;;;;;;;;;11.53;84.47;102750.72;5103099;28;20015;-55
2023/04/17 10:09:16;;;;;;;;;;;;;;;11.71;86.17;102750.78;5097884;28;19916;-56
2023/04/17 10:11:43;;;;;;;;;;;;;;;11.90;87.15;102760.44;5095684;28;19916;-56
2023/04/17 10:14:10;;;;;;;;;;;;;;;12.20;84.12;102756.00;5101074;28;20310;-56
2023/04/17 10:16:37;;;;;;;;;;;;;;;12.31;84.55;102747.09;5101597;28;19943;-56
2023/04/17 10:19:26;;;;;;;;;;;;;;;12.43;81.62;102758.03;5095903;28;19920;-55
2023/04/17 10:22:10;;;;;;;;;;;;;;;12.38;83.47;102749.19;5079167;28;19916;-56
2023/04/17 10:24:35;;;;;;;;;;;;;;;12.28;81.17;102746.94;5084936;28;19912;-55
2023/04/17 10:27:01;;;;;;;;;;;;;;;12.29;80.04;102743.56;5089039;28;19964;-54
2023/04/17 10:29:45;;;;;;;;;;;;;;;12.26;78.17;102757.19;5087814;28;19920;-55
2023/04/17 10:32:10;;;;;;;;;;;;;;;12.19;79.06;102760.22;5081558;28;19915;-54
2023/04/17 10:34:36;;;;;;;;;;;;;;;12.27;81.39;102758.06;5083993;28;19912;-54
2023/04/17 10:37:02;;;;;;;;;;;;;;;12.41;80.49;102740.72;5090633;28;19927;-55
2023/04/17 10:39:47;;;;;;;;;;;;;;;12.48;81.56;102743.66;5099135;28;19916;-54
2023/04/17 10:42:16;;;;;;;;;;;;;;;12.61;78.11;102748.63;5100128;28;20344;-55
2023/04/17 10:44:44;;;;;;;;;;;;;;;12.67;79.45;102749.75;5093268;28;20339;-54
2023/04/17 10:47:12;;;;;;;;;;;;;;;12.75;79.35;102745.88;5093191;28;20468;-54
2023/04/17 10:50:08;;;;;;;;;;;;;;;12.83;77.08;102748.00;5094039;28;19916;-55
2023/04/17 10:52:40;;;;;;;;;;;;;;;12.80;77.07;102741.78;5079486;28;19934;-55
2023/04/17 10:55:06;;;;;;;;;;;;;;;12.83;77.67;102737.66;5092065;28;19962;-54
2023/04/17 10:57:50;;;;;;;;;;;;;;;12.86;79.11;102739.50;5089227;28;19911;-53
2023/04/17 11:00:17;;;;;;;;;;;;;;;12.97;75.52;102730.56;5086324;28;19948;-52
2023/04/17 11:02:46;;;;;;;;;;;;;;;13.12;71.98;102738.19;5085332;28;19920;-51
2023/04/17 11:05:12;;;;;;;;;;;;;;;13.25;72.70;102731.94;5092792;28;19972;-49
2023/04/17 11:07:37;;;;;;;;;;;;;;;13.33;71.62;102739.22;5078417;28;20350;-51
2023/04/17 11:10:06;;;;;;;;;;;;;;;13.48;68.11;102735.59;5078554;28;19917;-51
2023/04/17 11:12:31;;;;;;;;;;;;;;;13.38;65.15;102732.56;5077518;28;19912;-51
2023/04/17 11:15:03;;;;;;;;;;;;;;;13.33;67.31;102736.63;5085202;28;19923;-52
2023/04/17 11:17:28;;;;;;;;;;;;;;;13.36;69.43;102733.31;5101104;28;19916;-51
2023/04/17 11:19:54;;;;;;;;;;;;;;;13.51;70.17;102722.78;5083709;28;19920;-53
2023/04/17 11:22:20;;;;;;;;;;;;;;;13.76;69.87;102724.78;5077957;28;19924;-55
2023/04/17 11:24:45;;;;;;;;;;;;;;;14.01;71.25;102725.03;5073883;28;19938;-53
2023/04/17 11:27:10;;;;;;;;;;;;;;;14.26;71.35;102726.09;5085974;28;19929;-51
2023/04/17 11:29:36;;;;;;;;;;;;;;;14.52;67.94;102719.47;5090863;28;20014;-51
2023/04/17 11:32:01;;;;;;;;;;;;;;;14.69;69.12;102716.75;5093862;28;19923;-53
2023/04/17 11:34:27;;;;;;;;;;;;;;;14.83;69.86;102721.59;5082261;28;20042;-51
2023/04/17 11:36:53;;;;;;;;;;;;;;;14.99;68.26;102722.28;5083741;28;19916;-53
2023/04/17 11:39:20;;;;;;;;;;;;;;;15.10;66.42;102719.22;5087072;28;19927;-54
2023/04/17 11:41:45;;;;;;;;;;;;;;;15.27;63.46;102718.16;5078605;28;20011;-53
2023/04/17 11:44:13;;;;;;;;;;;;;;;15.33;62.29;102720.97;5083296;28;20216;-54
2023/04/17 11:46:38;;;;;;;;;;;;;;;15.28;63.68;102714.72;5074766;28;19927;-52
2023/04/17 11:49:04;;;;;;;;;;;;;;;15.46;63.53;102710.25;5077437;28;19930;-53
2023/04/17 11:51:30;;;;;;;;;;;;;;;15.60;61.70;102702.13;5080951;28;19928;-51
2023/04/17 11:53:55;;;;;;;;;;;;;;;15.80;57.93;102711.53;5081255;28;20435;-51
2023/04/17 11:56:21;;;;;;;;;;;;;;;15.73;57.92;102713.03;5082669;28;19929;-54
2023/04/17 11:58:47;;;;;;;;;;;;;;;15.84;59.57;102712.53;5081304;28;19949;-57
2023/04/17 12:01:13;;;;;;;;;;;;;;;15.85;60.10;102709.97;5080083;28;19920;-55
2023/04/17 12:03:38;;;;;;;;;;;;;;;15.86;60.56;102705.69;5077334;28;19924;-56
2023/04/17 12:06:05;;;;;;;;;;;;;;;15.86;59.67;102706.56;5078110;28;20298;-56
2023/04/17 12:08:39;;;;;;;;;;;;;;;15.82;59.12;102707.25;5080669;28;19924;-56
2023/04/17 12:11:04;;;;;;;;;;;;;;;15.80;58.01;102706.34;5074737;28;19928;-56
2023/04/17 12:13:31;;;;;;;;;;;;;;;15.78;57.49;102708.00;5079091;28;20021;-56
2023/04/17 12:15:56;;;;;;;;;;;;;;;15.87;58.76;102708.31;5081090;28;20305;-56
2023/04/17 12:18:21;;;;;;;;;;;;;;;15.95;58.54;102704.28;5082490;28;19924;-55
2023/04/17 12:20:47;;;;;;;;;;;;;;;16.03;57.39;102705.44;5073685;28;21800;-55
2023/04/17 12:23:12;;;;;;;;;;;;;;;16.17;55.57;102708.50;5080201;28;19969;-55
2023/04/17 12:25:38;;;;;;;;;;;;;;;16.17;55.93;102705.91;5080389;28;20012;-51
2023/04/17 12:28:03;;;;;;;;;;;;;;;16.09;55.55;102697.88;5081486;28;19976;-53
2023/04/17 12:30:29;;;;;;;;;;;;;;;16.06;57.42;102702.94;5079362;28;19989;-53